UNR Ag. Experiment Farm, Sparks, Nevada Weather observations

Data are for 10 minute period ending at time listed.
 Day   Time   Solar   Ave.   Ave.  Ave.  Vector  Max.   Baro.   Total    
  of    of     Rad.   Air    Rel.  Wind   Wind   Wind  Press.  Precip.   
Year   Day            Temp.  Hum.  Speed  Dir.   Gust                    
2014   (PST)  Kw/m2    F      %     mph   deg.    mph    mb.     in.     
-------------------------------------------------------------------------
 261   22:50   0.00   59.8    60    0.3    49     1.5   864.3    0.00 
 261   23:00   0.00   60.3    56    1.1    44     2.5   864.3    0.00 
 261   23:10   0.00   61.8    52    2.7    37     3.9   864.3    0.00 
 261   23:20   0.00   61.3    55    2.2    17     2.8   864.3    0.00 
 261   23:30   0.00   61.3    55    2.4    37     3.1   864.3    0.00 
 261   23:40   0.00   60.5    58    1.3    43     2.1   864.3    0.00 
 261   23:50   0.00   60.1    62    0.8    43     1.8   864.4    0.00 
 262    0:00   0.00   59.1    65    2.0    63     3.0   864.4    0.00 
 262    0:10   0.00   59.0    64    2.3    36     3.1   864.5    0.00 
 262    0:20   0.00   59.0    64    2.0     9     2.7   864.5    0.00 
 262    0:30   0.00   59.1    65    1.3   338     2.5   864.5    0.00 
 262    0:40   0.00   57.2    67    2.8   134     3.7   864.6    0.00 
 262    0:50   0.00   56.4    68    2.4   132     3.6   864.7    0.00 
 262    1:00   0.00   57.1    64    3.0    81     4.0   864.7    0.00 
 262    1:10   0.00   57.4    61    3.7    69     4.7   864.7    0.00 
 262    1:20   0.00   55.9    64    2.9    64     4.2   864.7    0.00 
 262    1:30   0.00   54.0    69    2.0   240     3.8   864.7    0.00 
 262    1:40   0.00   54.0    68    2.1   202     3.7   864.7    0.00 
 262    1:50   0.00   58.0    58    1.2   160     1.8   864.8    0.00 
 262    2:00   0.00   55.5    60    1.5   160     2.1   864.9    0.00 
 262    2:10   0.00   51.9    71    1.6   220     2.8   864.9    0.00 
 262    2:20   0.00   53.3    72    1.2   208     2.6   864.9    0.00 
 262    2:30   0.00   54.5    67    0.2   319     1.3   864.9    0.00 
 262    2:40   0.00   52.8    71    1.5   112     2.1   864.9    0.00 
 262    2:50   0.00   50.7    74    0.8   140     2.8   865.0    0.00 
 262    3:00   0.00   49.1    79    2.8   140     3.1   865.1    0.00 
 262    3:10   0.00   50.2    78    3.9   156     4.6   865.1    0.00 
 262    3:20   0.00   49.6    77    3.5   166     4.7   865.2    0.00 
 262    3:30   0.00   49.6    79    2.3   232     3.1   865.3    0.00 
 262    3:40   0.00   51.2    76    2.8   225     3.7   865.2    0.00 
 262    3:50   0.00   50.8    72    2.4   191     3.4   865.1    0.00 
 262    4:00   0.00   48.6    80    2.6   123     3.2   865.2    0.00 
 262    4:10   0.00   49.3    82    1.8   123     2.3   865.2    0.00 
 262    4:20   0.00   50.0    78    0.5   132     1.9   865.4    0.00 
 262    4:30   0.00   49.3    78    1.0   195     2.3   865.4    0.00 
 262    4:40   0.00   48.5    80    2.2   207     3.1   865.5    0.00 
 262    4:50   0.00   48.4    81    1.8   224     2.9   865.6    0.00 
 262    5:00   0.00   48.8    81    1.0   154     3.4   865.7    0.00 
 262    5:10   0.00   48.5    81    2.9   155     3.9   865.7    0.00 
 262    5:20   0.00   48.2    83    2.6   178     3.5   865.9    0.00 
 262    5:30   0.00   49.3    81    2.9   163     3.4   866.0    0.00 
 262    5:40   0.00   49.3    80    2.1   156     3.2   866.0    0.00 
 262    5:50   0.00   48.4    83    2.1   153     3.2   866.0    0.00 
 262    6:00   0.00   49.6    81    0.7   132     3.1   866.2    0.00 
 262    6:10   0.01   50.1    81    0.4   131     2.1   866.3    0.00 
 262    6:20   0.01   49.6    83    1.4   299     2.0   866.4    0.00 
 262    6:30   0.02   49.0    83    2.0   234     2.8   866.4    0.00 
 262    6:40   0.02   49.0    83    3.7   197     4.6   866.5    0.00 
 262    6:50   0.04   49.6    81    2.7   213     4.5   866.6    0.00 
 262    7:00   0.06   50.7    81    0.8   238     2.7   866.5    0.00 
 262    7:10   0.07   51.4    80    0.8   121     1.7   866.5    0.00 
 262    7:20   0.17   53.1    80    0.3   115     1.4   866.4    0.00 
 262    7:30   0.24   56.0    76    0.0   214     0.4   866.3    0.00 
 262    7:40   0.27   57.9    71    0.7   297     2.5   866.4    0.00 
 262    7:50   0.26   58.2    67    1.9   348     2.9   866.4    0.00 
 262    8:00   0.27   59.7    62    0.9    18     1.9   866.5    0.00 
 262    8:10   0.30   62.2    58    0.1   358     0.7   866.5    0.00 
 262    8:20   0.33   63.5    54    0.5    78     1.6   866.6    0.00 
 262    8:30   0.36   64.1    52    1.0    32     2.4   866.7    0.00 
 262    8:40   0.39   64.0    53    0.9    60     2.8   866.7    0.00 
 262    8:50   0.42   64.2    50    1.2     4     2.8   866.7    0.00 
 262    9:00   0.44   63.8    54    2.0   355     4.2   866.9    0.00 
 262    9:10   0.47   64.0    54    3.0     9     4.7   867.1    0.00 
 262    9:20   0.50   64.4    52    5.2     4     7.2   867.1    0.00 
 262    9:30   0.53   64.8    52    4.5    16     7.4   867.0    0.00 
 262    9:40   0.55   65.5    51    4.8    18     8.0   867.0    0.00 
 262    9:50   0.57   65.9    51    5.9     7     8.8   867.1    0.00 
 262   10:00   0.60   66.4    50    5.5     2     9.7   867.0    0.00 
 262   10:10   0.62   67.4    48    4.1    18     6.9   867.0    0.00 
 262   10:20   0.64   68.0    45    3.9    17     7.8   867.0    0.00 
 262   10:30   0.66   68.6    46    4.3   355     6.8   866.9    0.00 
 262   10:40   0.68   68.7    46    3.7   335     7.7   866.9    0.00 
 262   10:50   0.69   69.2    45    3.7   320     6.4   866.9    0.00 
 262   11:00   0.70   70.4    44    2.8     4    10.9   866.9    0.00 
 262   11:10   0.71   71.1    43    2.9   355     5.3   866.8    0.00 
 262   11:20   0.72   71.0    40    3.6   303     7.7   866.8    0.00 
 262   11:30   0.73   71.9    38    3.4   311     6.6   866.6    0.00 
 262   11:40   0.73   73.0    37    2.6   314     8.7   866.5    0.00 
 262   11:50   0.74   72.6    41    3.4   309     8.1   866.4    0.00 
 262   12:00   0.74   72.8    41    4.2   313     8.4   866.3    0.00 
 262   12:10   0.74   73.8    38    3.7   301     8.6   866.2    0.00 
 262   12:20   0.75   73.6    39    4.4   301     7.0   866.1    0.00 
 262   12:30   0.74   74.2    38    3.8   299     8.1   865.9    0.00 
 262   12:40   0.74   74.5    34    5.2   284     8.9   865.8    0.00 
 262   12:50   0.74   74.6    36    3.4   316     9.2   865.7    0.00 
 262   13:00   0.74   75.1    33    2.6   294     7.4   865.5    0.00 
 262   13:10   0.73   75.8    33    4.1   281     9.6   865.4    0.00 
 262   13:20   0.71   76.6    32    3.0   318     5.8   865.2    0.00 
 262   13:30   0.70   76.7    32    3.3   308     8.8   865.1    0.00 
 262   13:40   0.68   76.9    31    4.6   344     9.7   865.1    0.00 
 262   13:50   0.66   78.2    31    7.9    65    13.8   864.9    0.00 
 262   14:00   0.64   80.0    28    6.9    82    13.2   864.8    0.00 
 262   14:10   0.63   79.4    27    8.1    85    14.8   864.7    0.00 
 262   14:20   0.62   79.5    28    7.2    73    15.4   864.7    0.00 
 262   14:30   0.59   79.6    29    7.0    72    12.9   864.5    0.00 
 262   14:40   0.58   79.7    29    5.6    59    10.5   864.5    0.00 
 262   14:50   0.55   79.6    30    6.1    46    10.4   864.5    0.00 
 262   15:00   0.53   79.2    30    4.2    31     8.6   864.4    0.00 
 262   15:10   0.51   79.6    30    6.1    57    12.6   864.4    0.00 
 262   15:20   0.48   79.7    30    5.0    51    10.7   864.3    0.00 
 262   15:30   0.45   80.3    26    4.5    59    12.6   864.3    0.00 
 262   15:40   0.42   79.6    30    5.0    40     7.9   864.2    0.00 
 262   15:50   0.40   79.2    30    5.5    43    13.8   864.2    0.00 
 262   16:00   0.37   78.9    27    7.0    74    13.8   864.2    0.00 
 262   16:10   0.34   79.4    27    6.4    70    10.8   864.2    0.00 
 262   16:20   0.31   79.3    27    3.4    30     6.4   864.2    0.00 
 262   16:30   0.28   79.3    28    4.7    58     9.1   864.1    0.00 
 262   16:40   0.24   78.7    29    4.5    28    10.2   864.1    0.00 
 262   16:50   0.21   77.7    29    5.8    35     9.9   864.1    0.00 
 262   17:00   0.18   76.8    31    4.7    36     7.5   864.1    0.00 
 262   17:10   0.15   75.5    36    3.4    39     8.3   864.0    0.00 
 262   17:20   0.12   76.4    31    4.6    53     8.3   864.0    0.00 
 262   17:30   0.09   74.8    32    6.5    50     8.8   863.9    0.00 
 262   17:40   0.07   74.0    31    5.9    55     8.6   864.0    0.00 
 262   17:50   0.04   73.9    31    4.0    66     5.3   864.0    0.00 
 262   18:00   0.01   73.1    31    5.2    74     7.6   864.1    0.00 
 262   18:10   0.01   71.7    34    4.3    72     5.6   864.0    0.00 
 262   18:20   0.00   70.4    34    4.1    75     5.4   863.9    0.00 
 262   18:30   0.00   71.8    31    3.6    73     5.0   863.9    0.00 
 262   18:40   0.00   69.8    35    2.5    71     3.8   863.9    0.00 
 262   18:50   0.00   68.5    37    1.5    79     5.0   864.0    0.00 
 262   19:00   0.00   68.5    35    0.3   154     1.3   864.0    0.00 
 262   19:10   0.00   68.4    34    0.5   277     1.6   864.0    0.00 
 262   19:20   0.00   66.7    39    4.5   332     8.6   864.1    0.00 
 262   19:30   0.00   67.4    39    5.2     7     8.2   864.1    0.00 
 262   19:40   0.00   70.1    33    4.5   350     5.5   864.2    0.00 
 262   19:50   0.00   68.7    36    4.3   347     5.3   864.2    0.00 
 262   20:00   0.00   65.2    44    2.2   353     4.6   864.4    0.00 
 262   20:10   0.00   62.4    47    3.0   158     3.5   864.4    0.00 
 262   20:20   0.00   62.4    48    3.7   191     4.0   864.5    0.00 
 262   20:30   0.00   63.7    44    3.3   210     4.5   864.5    0.00 
 262   20:40   0.00   63.0    46    2.1   243     3.1   864.6    0.00 
 262   20:50   0.00   63.8    45    1.6   225     2.4   864.6    0.00 
 262   21:00   0.00   60.7    52    3.1   153     4.5   864.7    0.00 
 262   21:10   0.00   59.8    56    1.6   150     4.5   864.8    0.00 
 262   21:20   0.00   60.0    54    2.4   255     4.9   864.8    0.00 
 262   21:30   0.00   57.8    59    1.8   185     2.9   864.9    0.00 
 262   21:40   0.00   58.5    56    3.3   193     4.2   864.9    0.00 
 262   21:50   0.00   58.2    57    3.4   160     4.4   865.0    0.00 
 262   22:00   0.00   57.0    59    3.4   182     4.4   865.0    0.00 
 262   22:10   0.00   58.6    55    2.6   189     3.2   865.0    0.00 
 262   22:20   0.00   57.9    56    2.3   206     3.1   865.1    0.00 
 262   22:30   0.00   58.9    55    3.1   188     3.7   865.1    0.00 
 262   22:40   0.00   58.0    57    3.8   182     5.0   865.1    0.00 

Return to Sparks, Nevada, UNR Ag Experiment Farm graphs page.


Western Regional Climate Center,wrcc@dri.edu